Arca — PDHT — position and weather

sailwx.info

Track history (hours):
 
Tides and Currents Weather Stations Pressure Air Temp Water Temp Dewpoint Dewpoint Depression Visibility Wind Speed Wind Dir Waves Ship Positions

Oceanographic research ship Arca (Netherlands)

Detailed information on ship capabilities available from University of Delaware's Ocean Information Center.

Last reported at 2014-Nov-25 01:32 UTC. Time now 2014-Nov-25 01:53 UTC.
Position N 52°01' E 004°06'.

Length 83 m; draft 4.8 m.

Type: Law enforcement. MMSI: 244454000.

Date/timePositionNaut miles runAvg speedWind from/ knotsBaromVisibWave heightAir tempDewpointWater temp
2014-Nov-25 01:32N 52°01' E 004°06'0 0.0
2014-Nov-25 00:32N 52°01' E 004°06'0 0.0
2014-Nov-24 23:32N 52°01' E 004°06'0 0.0
2014-Nov-24 22:32N 52°01' E 004°06'0 0.0
2014-Nov-24 21:32N 52°01' E 004°06'0 0.0
2014-Nov-24 20:32N 52°01' E 004°06'5 4.8
2014-Nov-24 19:33N 52°04' E 003°60'1 0.8
2014-Nov-24 18:34N 52°05' E 004°01'1 1.0
2014-Nov-24 17:33N 52°04' E 003°60'2 1.9
2014-Nov-24 16:33N 52°05' E 004°03'8 7.6
2014-Nov-24 15:33N 52°07' E 004°14'1 1.3
2014-Nov-24 14:23N 52°06' E 004°16'0 0.0
2014-Nov-24 13:29N 52°06' E 004°16'0 0.0
2014-Nov-24 12:32N 52°06' E 004°16'0 0.0
2014-Nov-24 11:32N 52°06' E 004°16'0 0.0
2014-Nov-24 10:26N 52°06' E 004°16'0 0.0
2014-Nov-24 09:20N 52°06' E 004°16'0 0.0
2014-Nov-24 08:32N 52°06' E 004°16'0 0.0
2014-Nov-24 07:29N 52°06' E 004°16'0 0.0
2014-Nov-24 06:32N 52°06' E 004°16'0 0.0
2014-Nov-24 05:32N 52°06' E 004°16'0 0.0
2014-Nov-24 04:32N 52°06' E 004°16'0 0.0
2014-Nov-24 03:32N 52°06' E 004°16'0 0.0
2014-Nov-24 02:32N 52°06' E 004°16'0 0.0
2014-Nov-24 01:32N 52°06' E 004°16'0 0.0
2014-Nov-24 00:26N 52°06' E 004°16'0 0.0
2014-Nov-23 23:32N 52°06' E 004°16'0 0.0
2014-Nov-23 22:32N 52°06' E 004°16'0 0.0
2014-Nov-23 21:29N 52°06' E 004°16'0 0.0
2014-Nov-23 20:32N 52°06' E 004°16'0 0.0
2014-Nov-23 19:32N 52°06' E 004°16'0 0.0
2014-Nov-23 18:32N 52°06' E 004°16'0 0.0
2014-Nov-23 17:32N 52°06' E 004°16'0 0.0
2014-Nov-23 16:23N 52°06' E 004°16'0 0.0
2014-Nov-23 15:32N 52°06' E 004°16'0 0.0
2014-Nov-23 14:32N 52°06' E 004°16'0 0.0
2014-Nov-23 13:32N 52°06' E 004°16'0 0.0
2014-Nov-23 12:29N 52°06' E 004°16'0 0.0
2014-Nov-23 11:32N 52°06' E 004°16'0 0.0
2014-Nov-23 10:32N 52°06' E 004°16'0 0.0
2014-Nov-23 09:29N 52°06' E 004°16'0 0.0
2014-Nov-23 08:32N 52°06' E 004°16'0 0.0
2014-Nov-23 07:32N 52°06' E 004°16'0 0.0
2014-Nov-23 06:26N 52°06' E 004°16'0 0.0
2014-Nov-23 05:32N 52°06' E 004°16'0 0.0
2014-Nov-23 04:32N 52°06' E 004°16'0 0.0
2014-Nov-23 03:32N 52°06' E 004°16'0 0.0
2014-Nov-23 02:32N 52°06' E 004°16'0 0.0
2014-Nov-23 01:29N 52°06' E 004°16'0 0.0
2014-Nov-23 00:32N 52°06' E 004°16'0 0.0
2014-Nov-22 23:32N 52°06' E 004°16'0 0.0
2014-Nov-22 22:32N 52°06' E 004°16'0 0.0
2014-Nov-22 21:29N 52°06' E 004°16'0 0.0
2014-Nov-22 20:29N 52°06' E 004°16'0 0.0
2014-Nov-22 19:32N 52°06' E 004°16'0 0.0
2014-Nov-22 18:32N 52°06' E 004°16'0 0.0
2014-Nov-22 17:32N 52°06' E 004°16'0 0.0
2014-Nov-22 16:26N 52°06' E 004°16'0 0.0
2014-Nov-22 15:32N 52°06' E 004°16'0 0.0
2014-Nov-22 14:08N 52°06' E 004°16'0 0.0
2014-Nov-22 13:32N 52°06' E 004°16'0 0.0
2014-Nov-22 12:32N 52°06' E 004°16'0 0.0
2014-Nov-22 11:32N 52°06' E 004°16'0 0.0
2014-Nov-22 10:32N 52°06' E 004°16'0 0.0
2014-Nov-22 09:32N 52°06' E 004°16'0 0.0
2014-Nov-22 08:32N 52°06' E 004°16'0 0.0
2014-Nov-22 07:32N 52°06' E 004°16'0 0.0
2014-Nov-22 06:32N 52°06' E 004°16'0 0.0
2014-Nov-22 05:32N 52°06' E 004°16'0 0.0
2014-Nov-22 04:32N 52°06' E 004°16'0 0.0
2014-Nov-22 03:32N 52°06' E 004°16'0 0.0
2014-Nov-22 02:26N 52°06' E 004°16'0 0.0
2014-Nov-22 01:32N 52°06' E 004°16'0 0.0
2014-Nov-22 00:29N 52°06' E 004°16'0 0.0
2014-Nov-21 23:32N 52°06' E 004°16'0 0.0
2014-Nov-21 22:32N 52°06' E 004°16'0 0.0
2014-Nov-21 21:29N 52°06' E 004°16'0 0.0
2014-Nov-21 20:32N 52°06' E 004°16'0 0.0
2014-Nov-21 19:29N 52°06' E 004°16'0 0.0
2014-Nov-21 18:32N 52°06' E 004°16'0 0.0
2014-Nov-21 17:32N 52°06' E 004°16'0 0.0
2014-Nov-21 16:32N 52°06' E 004°16'0 0.0
2014-Nov-21 15:29N 52°06' E 004°16'0 0.0
2014-Nov-21 14:32N 52°06' E 004°16'0 0.0
2014-Nov-21 13:32N 52°06' E 004°16'0 0.0
2014-Nov-21 12:32N 52°06' E 004°16'0 0.0
2014-Nov-21 11:32N 52°06' E 004°16'0 0.0
2014-Nov-21 10:32N 52°06' E 004°16'5 4.7
2014-Nov-21 09:33N 52°09' E 004°10'0 0.0
2014-Nov-21 08:33N 52°09' E 004°10'0 0.1
2014-Nov-21 07:33N 52°08' E 004°09'0 0.1
2014-Nov-21 06:34N 52°09' E 004°10'9 8.8
2014-Nov-21 05:33N 52°17' E 004°08'1212.1
2014-Nov-21 04:33N 52°29' E 004°02'1412.0
2014-Nov-21 03:22N 52°42' E 003°54'1011.3
2014-Nov-21 02:26N 52°52' E 003°46'  
2014-Nov-17 10:23N 52°29' E 004°02'1113.3
2014-Nov-17 09:33N 52°19' E 004°10'1312.9
2014-Nov-17 08:33N 52°07' E 004°15'1 1.0
2014-Nov-17 07:33N 52°06' E 004°16'0 0.0
2014-Nov-17 06:33N 52°06' E 004°16'0 0.0
2014-Nov-17 05:33N 52°06' E 004°16'0 0.0
2014-Nov-17 04:33N 52°06' E 004°16'0 0.0
2014-Nov-17 03:33N 52°06' E 004°16'0 0.0
2014-Nov-17 02:33N 52°06' E 004°16'0 0.0
2014-Nov-17 01:33N 52°06' E 004°16'0 0.0
2014-Nov-17 00:33N 52°06' E 004°16'0 0.0
2014-Nov-16 23:33N 52°06' E 004°16'0 0.0
2014-Nov-16 22:33N 52°06' E 004°16'0 0.0
2014-Nov-16 21:33N 52°06' E 004°16'0 0.0
2014-Nov-16 20:33N 52°06' E 004°16'0 0.0
2014-Nov-16 19:33N 52°06' E 004°16'0 0.0
2014-Nov-16 18:33N 52°06' E 004°16'0 0.0
2014-Nov-16 17:30N 52°06' E 004°16'0 0.0
2014-Nov-16 16:33N 52°06' E 004°16'0 0.0
2014-Nov-16 15:33N 52°06' E 004°16'0 0.0
2014-Nov-16 14:33N 52°06' E 004°16'0 0.0
2014-Nov-16 13:30N 52°06' E 004°16'0 0.0
2014-Nov-16 12:30N 52°06' E 004°16'0 0.0
2014-Nov-16 11:33N 52°06' E 004°16'0 0.0
2014-Nov-16 10:33N 52°06' E 004°16'0 0.0
2014-Nov-16 09:33N 52°06' E 004°16'0 0.0
2014-Nov-16 08:33N 52°06' E 004°16'0 0.0
2014-Nov-16 06:33N 52°06' E 004°16'0 0.0
2014-Nov-16 05:33N 52°06' E 004°16'0 0.0
2014-Nov-16 04:33N 52°06' E 004°16'0 0.0
2014-Nov-16 03:30N 52°06' E 004°16'0 0.0
2014-Nov-16 02:33N 52°06' E 004°16'0 0.0
2014-Nov-16 01:33N 52°06' E 004°16'0 0.0
2014-Nov-16 00:33N 52°06' E 004°16'0 0.0
2014-Nov-15 23:33N 52°06' E 004°16'0 0.0
2014-Nov-15 22:33N 52°06' E 004°16'0 0.0
2014-Nov-15 21:33N 52°06' E 004°16'0 0.0
2014-Nov-15 20:33N 52°06' E 004°16'0 0.0
2014-Nov-15 19:33N 52°06' E 004°16'0 0.0
2014-Nov-15 18:33N 52°06' E 004°16'0 0.0
2014-Nov-15 17:33N 52°06' E 004°16'0 0.0
2014-Nov-15 16:33N 52°06' E 004°16'0 0.0
2014-Nov-15 15:33N 52°06' E 004°16'0 0.0
2014-Nov-15 14:33N 52°06' E 004°16'0 0.0
2014-Nov-15 13:33N 52°06' E 004°16'0 0.0
2014-Nov-15 12:33N 52°06' E 004°16'0 0.0
2014-Nov-15 11:33N 52°06' E 004°16'0 0.0
2014-Nov-15 10:33N 52°06' E 004°16'0 0.0
2014-Nov-15 09:33N 52°06' E 004°16'0 0.0
2014-Nov-15 08:33N 52°06' E 004°16'0 0.0
2014-Nov-15 07:33N 52°06' E 004°16'0 0.0
2014-Nov-15 06:33N 52°06' E 004°16'0 0.0
2014-Nov-15 05:33N 52°06' E 004°16'0 0.0
2014-Nov-15 04:33N 52°06' E 004°16'0 0.0
2014-Nov-15 03:33N 52°06' E 004°16'0 0.0
2014-Nov-15 02:33N 52°06' E 004°16'0 0.0
2014-Nov-15 01:33N 52°06' E 004°16'  
Track history (hours):
 
Tides and Currents Weather Stations Pressure Air Temp Water Temp Dewpoint Dewpoint Depression Visibility Wind Speed Wind Dir Waves Ship Positions

Oceanographic research ship Arca (Netherlands)

Detailed information on ship capabilities available from University of Delaware's Ocean Information Center.

Last reported at 2014-Nov-25 01:32 UTC. Time now 2014-Nov-25 01:53 UTC.
Position N 52°01' E 004°06'.

Length 83 m; draft 4.8 m.

Type: Law enforcement. MMSI: 244454000.

Date/timePositionNaut miles runAvg speedWind from/ knotsBaromVisibWave heightAir tempDewpointWater temp
2014-Nov-25 01:32N 52°01' E 004°06'0 0.0
2014-Nov-25 00:32N 52°01' E 004°06'0 0.0
2014-Nov-24 23:32N 52°01' E 004°06'0 0.0
2014-Nov-24 22:32N 52°01' E 004°06'0 0.0
2014-Nov-24 21:32N 52°01' E 004°06'0 0.0
2014-Nov-24 20:32N 52°01' E 004°06'5 4.8
2014-Nov-24 19:33N 52°04' E 003°60'1 0.8
2014-Nov-24 18:34N 52°05' E 004°01'1 1.0
2014-Nov-24 17:33N 52°04' E 003°60'2 1.9
2014-Nov-24 16:33N 52°05' E 004°03'8 7.6
2014-Nov-24 15:33N 52°07' E 004°14'1 1.3
2014-Nov-24 14:23N 52°06' E 004°16'0 0.0
2014-Nov-24 13:29N 52°06' E 004°16'0 0.0
2014-Nov-24 12:32N 52°06' E 004°16'0 0.0
2014-Nov-24 11:32N 52°06' E 004°16'0 0.0
2014-Nov-24 10:26N 52°06' E 004°16'0 0.0
2014-Nov-24 09:20N 52°06' E 004°16'0 0.0
2014-Nov-24 08:32N 52°06' E 004°16'0 0.0
2014-Nov-24 07:29N 52°06' E 004°16'0 0.0
2014-Nov-24 06:32N 52°06' E 004°16'0 0.0
2014-Nov-24 05:32N 52°06' E 004°16'0 0.0
2014-Nov-24 04:32N 52°06' E 004°16'0 0.0
2014-Nov-24 03:32N 52°06' E 004°16'0 0.0
2014-Nov-24 02:32N 52°06' E 004°16'0 0.0
2014-Nov-24 01:32N 52°06' E 004°16'0 0.0
2014-Nov-24 00:26N 52°06' E 004°16'0 0.0
2014-Nov-23 23:32N 52°06' E 004°16'0 0.0
2014-Nov-23 22:32N 52°06' E 004°16'0 0.0
2014-Nov-23 21:29N 52°06' E 004°16'0 0.0
2014-Nov-23 20:32N 52°06' E 004°16'0 0.0
2014-Nov-23 19:32N 52°06' E 004°16'0 0.0
2014-Nov-23 18:32N 52°06' E 004°16'0 0.0
2014-Nov-23 17:32N 52°06' E 004°16'0 0.0
2014-Nov-23 16:23N 52°06' E 004°16'0 0.0
2014-Nov-23 15:32N 52°06' E 004°16'0 0.0
2014-Nov-23 14:32N 52°06' E 004°16'0 0.0
2014-Nov-23 13:32N 52°06' E 004°16'0 0.0
2014-Nov-23 12:29N 52°06' E 004°16'0 0.0
2014-Nov-23 11:32N 52°06' E 004°16'0 0.0
2014-Nov-23 10:32N 52°06' E 004°16'0 0.0
2014-Nov-23 09:29N 52°06' E 004°16'0 0.0
2014-Nov-23 08:32N 52°06' E 004°16'0 0.0
2014-Nov-23 07:32N 52°06' E 004°16'0 0.0
2014-Nov-23 06:26N 52°06' E 004°16'0 0.0
2014-Nov-23 05:32N 52°06' E 004°16'0 0.0
2014-Nov-23 04:32N 52°06' E 004°16'0 0.0
2014-Nov-23 03:32N 52°06' E 004°16'0 0.0
2014-Nov-23 02:32N 52°06' E 004°16'0 0.0
2014-Nov-23 01:29N 52°06' E 004°16'0 0.0
2014-Nov-23 00:32N 52°06' E 004°16'0 0.0
2014-Nov-22 23:32N 52°06' E 004°16'0 0.0
2014-Nov-22 22:32N 52°06' E 004°16'0 0.0
2014-Nov-22 21:29N 52°06' E 004°16'0 0.0
2014-Nov-22 20:29N 52°06' E 004°16'0 0.0
2014-Nov-22 19:32N 52°06' E 004°16'0 0.0
2014-Nov-22 18:32N 52°06' E 004°16'0 0.0
2014-Nov-22 17:32N 52°06' E 004°16'0 0.0
2014-Nov-22 16:26N 52°06' E 004°16'0 0.0
2014-Nov-22 15:32N 52°06' E 004°16'0 0.0
2014-Nov-22 14:08N 52°06' E 004°16'0 0.0
2014-Nov-22 13:32N 52°06' E 004°16'0 0.0
2014-Nov-22 12:32N 52°06' E 004°16'0 0.0
2014-Nov-22 11:32N 52°06' E 004°16'0 0.0
2014-Nov-22 10:32N 52°06' E 004°16'0 0.0
2014-Nov-22 09:32N 52°06' E 004°16'0 0.0
2014-Nov-22 08:32N 52°06' E 004°16'0 0.0
2014-Nov-22 07:32N 52°06' E 004°16'0 0.0
2014-Nov-22 06:32N 52°06' E 004°16'0 0.0
2014-Nov-22 05:32N 52°06' E 004°16'0 0.0
2014-Nov-22 04:32N 52°06' E 004°16'0 0.0
2014-Nov-22 03:32N 52°06' E 004°16'0 0.0
2014-Nov-22 02:26N 52°06' E 004°16'0 0.0
2014-Nov-22 01:32N 52°06' E 004°16'0 0.0
2014-Nov-22 00:29N 52°06' E 004°16'0 0.0
2014-Nov-21 23:32N 52°06' E 004°16'0 0.0
2014-Nov-21 22:32N 52°06' E 004°16'0 0.0
2014-Nov-21 21:29N 52°06' E 004°16'0 0.0
2014-Nov-21 20:32N 52°06' E 004°16'0 0.0
2014-Nov-21 19:29N 52°06' E 004°16'0 0.0
2014-Nov-21 18:32N 52°06' E 004°16'0 0.0
2014-Nov-21 17:32N 52°06' E 004°16'0 0.0
2014-Nov-21 16:32N 52°06' E 004°16'0 0.0
2014-Nov-21 15:29N 52°06' E 004°16'0 0.0
2014-Nov-21 14:32N 52°06' E 004°16'0 0.0
2014-Nov-21 13:32N 52°06' E 004°16'0 0.0
2014-Nov-21 12:32N 52°06' E 004°16'0 0.0
2014-Nov-21 11:32N 52°06' E 004°16'0 0.0
2014-Nov-21 10:32N 52°06' E 004°16'5 4.7
2014-Nov-21 09:33N 52°09' E 004°10'0 0.0
2014-Nov-21 08:33N 52°09' E 004°10'0 0.1
2014-Nov-21 07:33N 52°08' E 004°09'0 0.1
2014-Nov-21 06:34N 52°09' E 004°10'9 8.8
2014-Nov-21 05:33N 52°17' E 004°08'1212.1
2014-Nov-21 04:33N 52°29' E 004°02'1412.0
2014-Nov-21 03:22N 52°42' E 003°54'1011.3
2014-Nov-21 02:26N 52°52' E 003°46'  
2014-Nov-17 10:23N 52°29' E 004°02'1113.3
2014-Nov-17 09:33N 52°19' E 004°10'1312.9
2014-Nov-17 08:33N 52°07' E 004°15'1 1.0
2014-Nov-17 07:33N 52°06' E 004°16'0 0.0
2014-Nov-17 06:33N 52°06' E 004°16'0 0.0
2014-Nov-17 05:33N 52°06' E 004°16'0 0.0
2014-Nov-17 04:33N 52°06' E 004°16'0 0.0
2014-Nov-17 03:33N 52°06' E 004°16'0 0.0
2014-Nov-17 02:33N 52°06' E 004°16'0 0.0
2014-Nov-17 01:33N 52°06' E 004°16'0 0.0
2014-Nov-17 00:33N 52°06' E 004°16'0 0.0
2014-Nov-16 23:33N 52°06' E 004°16'0 0.0
2014-Nov-16 22:33N 52°06' E 004°16'0 0.0
2014-Nov-16 21:33N 52°06' E 004°16'0 0.0
2014-Nov-16 20:33N 52°06' E 004°16'0 0.0
2014-Nov-16 19:33N 52°06' E 004°16'0 0.0
2014-Nov-16 18:33N 52°06' E 004°16'0 0.0
2014-Nov-16 17:30N 52°06' E 004°16'0 0.0
2014-Nov-16 16:33N 52°06' E 004°16'0 0.0
2014-Nov-16 15:33N 52°06' E 004°16'0 0.0
2014-Nov-16 14:33N 52°06' E 004°16'0 0.0
2014-Nov-16 13:30N 52°06' E 004°16'0 0.0
2014-Nov-16 12:30N 52°06' E 004°16'0 0.0
2014-Nov-16 11:33N 52°06' E 004°16'0 0.0
2014-Nov-16 10:33N 52°06' E 004°16'0 0.0
2014-Nov-16 09:33N 52°06' E 004°16'0 0.0
2014-Nov-16 08:33N 52°06' E 004°16'0 0.0
2014-Nov-16 06:33N 52°06' E 004°16'0 0.0
2014-Nov-16 05:33N 52°06' E 004°16'0 0.0
2014-Nov-16 04:33N 52°06' E 004°16'0 0.0
2014-Nov-16 03:30N 52°06' E 004°16'0 0.0
2014-Nov-16 02:33N 52°06' E 004°16'0 0.0
2014-Nov-16 01:33N 52°06' E 004°16'0 0.0
2014-Nov-16 00:33N 52°06' E 004°16'0 0.0
2014-Nov-15 23:33N 52°06' E 004°16'0 0.0
2014-Nov-15 22:33N 52°06' E 004°16'0 0.0
2014-Nov-15 21:33N 52°06' E 004°16'0 0.0
2014-Nov-15 20:33N 52°06' E 004°16'0 0.0
2014-Nov-15 19:33N 52°06' E 004°16'0 0.0
2014-Nov-15 18:33N 52°06' E 004°16'0 0.0
2014-Nov-15 17:33N 52°06' E 004°16'0 0.0
2014-Nov-15 16:33N 52°06' E 004°16'0 0.0
2014-Nov-15 15:33N 52°06' E 004°16'0 0.0
2014-Nov-15 14:33N 52°06' E 004°16'0 0.0
2014-Nov-15 13:33N 52°06' E 004°16'0 0.0
2014-Nov-15 12:33N 52°06' E 004°16'0 0.0
2014-Nov-15 11:33N 52°06' E 004°16'0 0.0
2014-Nov-15 10:33N 52°06' E 004°16'0 0.0
2014-Nov-15 09:33N 52°06' E 004°16'0 0.0
2014-Nov-15 08:33N 52°06' E 004°16'0 0.0
2014-Nov-15 07:33N 52°06' E 004°16'0 0.0
2014-Nov-15 06:33N 52°06' E 004°16'0 0.0
2014-Nov-15 05:33N 52°06' E 004°16'0 0.0
2014-Nov-15 04:33N 52°06' E 004°16'0 0.0
2014-Nov-15 03:33N 52°06' E 004°16'0 0.0
2014-Nov-15 02:33N 52°06' E 004°16'0 0.0
2014-Nov-15 01:33N 52°06' E 004°16'  

Dump ship's entire track history